createdAt,value
2023-04-22T06:54:23.292Z,95992.72
2023-04-22T06:56:52.619Z,95987.28
2023-04-22T07:03:07.022Z,95975.47
2023-04-22T07:05:48.756Z,95981.72
2023-04-22T07:08:19.906Z,95974.59
2023-04-22T07:10:49.036Z,95980.84
2023-04-22T07:13:20.516Z,95966.50
2023-04-22T07:14:21.852Z,95971.28
2023-04-22T07:15:23.290Z,95974.88
2023-04-22T07:17:45.227Z,95979.75
2023-04-22T07:18:46.632Z,95977.53
2023-04-22T07:19:48.970Z,95974.69
2023-04-22T07:22:15.716Z,95963.66
2023-04-22T07:23:17.065Z,95976.72
2023-04-22T07:24:18.652Z,95977.97
2023-04-22T07:25:20.039Z,95976.50
2023-04-22T07:26:21.418Z,95973.97
2023-04-22T07:28:43.581Z,95977.53
2023-04-22T07:29:45.160Z,95980.59
2023-04-22T07:32:05.217Z,95980.16
2023-04-22T07:33:06.751Z,95989.19
2023-04-22T07:34:10.529Z,95992.25
2023-04-22T07:35:11.908Z,95993.22
2023-04-22T07:36:13.253Z,95991.72
2023-04-22T07:37:14.658Z,95983.72
2023-04-22T07:38:16.176Z,95983.84
2023-04-22T07:39:17.977Z,95997.19
2023-04-22T07:40:19.561Z,95991.41
2023-04-22T07:41:20.963Z,95991.53
2023-04-22T07:42:22.407Z,95996.34
2023-04-22T07:43:23.821Z,95992.47
2023-04-22T07:44:25.147Z,95989.84
2023-04-22T07:45:26.563Z,95988.25
2023-04-22T07:46:28.318Z,95999.81
2023-04-22T07:47:30.093Z,96003.06
2023-04-22T07:48:31.519Z,95998.47
2023-04-22T07:49:33.052Z,95997.50
2023-04-22T07:50:35.204Z,96002.03
2023-04-22T07:51:37.441Z,95997.38
2023-04-22T07:52:38.826Z,96004.72
2023-04-22T07:53:40.373Z,96005.13
2023-04-22T07:54:41.777Z,95993.97
2023-04-22T07:55:43.324Z,95998.69
2023-04-22T07:56:44.668Z,95984.97
2023-04-22T07:57:46.317Z,95998.16
2023-04-22T07:58:47.715Z,95999.16
2023-04-22T07:59:49.730Z,96000.97
2023-04-22T08:00:51.303Z,95998.50
2023-04-22T08:01:52.992Z,95986.34
2023-04-22T08:02:54.570Z,95999.34
2023-04-22T08:03:56.641Z,96001.50
2023-04-22T08:04:58.217Z,95996.97
2023-04-22T08:05:59.684Z,95996.66
2023-04-22T08:07:09.269Z,95998.81
2023-04-22T08:08:19.020Z,95996.91
2023-04-22T08:09:20.586Z,95992.31
2023-04-22T08:10:22.277Z,95991.38
2023-04-22T08:11:23.741Z,95999.00
2023-04-22T08:12:25.310Z,95991.47
2023-04-22T08:13:27.567Z,95996.34
2023-04-22T08:14:29.049Z,95990.72
2023-04-22T08:15:30.577Z,95991.28
2023-04-22T08:16:32.249Z,95985.66
2023-04-22T08:17:33.830Z,95987.22
2023-04-22T08:18:35.426Z,95986.00
2023-04-22T08:19:37.193Z,95992.94
2023-04-22T08:20:38.795Z,95993.69
2023-04-22T08:21:40.274Z,95992.00
2023-04-22T08:22:42.876Z,95984.66
2023-04-22T08:23:44.269Z,95988.34
2023-04-22T08:24:45.770Z,95983.66
2023-04-22T08:25:48.135Z,95985.16
2023-04-22T08:26:49.521Z,95978.34
2023-04-22T08:27:51.650Z,95982.41
2023-04-22T08:28:53.118Z,95989.88
2023-04-22T08:29:54.534Z,95978.34
2023-04-22T08:30:55.921Z,95980.63
2023-04-22T08:31:57.378Z,95985.41
2023-04-22T08:32:58.791Z,95978.25
2023-04-22T08:34:00.357Z,95973.09
2023-04-22T08:35:05.241Z,95985.28
2023-04-22T08:36:08.651Z,95972.47
2023-04-22T08:37:10.169Z,95974.69
2023-04-22T08:38:11.530Z,95973.00
2023-04-22T08:39:12.987Z,95973.41
2023-04-22T08:40:14.383Z,95977.63
2023-04-22T08:41:21.738Z,95974.88
2023-04-22T08:42:23.429Z,95967.34
2023-04-22T08:43:28.212Z,95973.56
2023-04-22T08:44:29.923Z,95971.38
2023-04-22T08:45:31.891Z,95976.91
2023-04-22T08:46:33.678Z,95956.13
2023-04-22T08:47:37.201Z,95976.72
2023-04-22T08:48:38.998Z,95984.72
2023-04-22T08:49:40.838Z,95975.50
2023-04-22T08:50:42.622Z,95972.84
2023-04-22T08:51:45.080Z,95983.69
2023-04-22T08:52:46.651Z,95976.66
2023-04-22T08:53:48.155Z,95958.06
2023-04-22T08:54:49.873Z,95965.09
2023-04-22T08:55:51.971Z,95977.53
2023-04-22T08:56:53.978Z,95974.69
2023-04-22T08:57:55.819Z,95979.06
2023-04-22T08:58:57.779Z,95974.28
2023-04-22T08:59:59.692Z,95981.63
2023-04-22T09:01:02.730Z,95985.69
2023-04-22T09:02:06.477Z,95975.97
2023-04-22T09:03:08.611Z,95966.88
2023-04-22T09:04:11.448Z,95963.66
2023-04-22T09:05:14.283Z,95973.22
2023-04-22T09:06:19.480Z,95968.44
2023-04-22T09:07:27.689Z,95966.34
2023-04-22T09:08:29.389Z,95970.09
2023-04-22T09:09:32.042Z,95970.00
2023-04-22T09:10:37.913Z,95970.81
2023-04-22T09:11:39.403Z,95959.63
2023-04-22T09:12:41.429Z,95963.44
2023-04-22T09:13:43.302Z,95962.31
2023-04-22T09:14:45.520Z,95954.25
2023-04-22T09:15:47.787Z,95956.25
2023-04-22T09:16:49.804Z,95966.69
2023-04-22T09:17:52.246Z,95959.78
2023-04-22T09:18:53.821Z,95956.31
2023-04-22T09:20:00.273Z,95956.88
2023-04-22T09:21:01.748Z,95960.00
2023-04-22T09:22:03.355Z,95958.47
2023-04-22T09:23:05.078Z,95966.34
2023-04-22T09:24:08.661Z,95959.72
2023-04-22T09:25:23.756Z,95963.28
2023-04-22T09:26:26.344Z,95954.78
2023-04-22T09:27:28.579Z,95952.00
2023-04-22T09:28:29.986Z,95958.16
2023-04-22T09:29:31.769Z,95954.00
2023-04-22T09:30:36.499Z,95948.25
2023-04-22T09:31:37.961Z,95952.47
2023-04-22T09:32:39.733Z,95958.31
2023-04-22T09:33:41.161Z,95951.06
2023-04-22T09:34:49.237Z,95948.00
2023-04-22T09:35:50.738Z,95947.72
2023-04-22T09:36:52.131Z,95934.78
2023-04-22T09:37:53.552Z,95952.19
2023-04-22T09:38:55.691Z,95940.63
2023-04-22T09:39:57.107Z,95951.84
2023-04-22T09:40:58.480Z,95954.00
2023-04-22T09:41:59.900Z,95950.50
2023-04-22T09:43:07.229Z,95950.22
2023-04-22T09:44:17.978Z,95951.91
2023-04-22T09:45:32.854Z,95945.09
2023-04-22T09:46:35.011Z,95935.19
2023-04-22T09:47:36.754Z,95947.16
2023-04-22T09:48:47.298Z,95941.28
2023-04-22T09:49:49.923Z,95941.91
2023-04-22T09:50:51.576Z,95933.94
2023-04-22T09:51:58.977Z,95937.06
2023-04-22T09:53:02.789Z,95931.28
2023-04-22T09:54:08.792Z,95928.63
2023-04-22T09:55:10.262Z,95934.72
2023-04-22T09:56:11.938Z,95927.44
2023-04-22T09:57:16.352Z,95931.50
2023-04-22T09:58:19.764Z,95925.53
2023-04-22T09:59:23.158Z,95926.28
2023-04-22T10:00:29.064Z,95927.56
2023-04-22T10:01:41.447Z,95936.56
2023-04-22T10:02:43.025Z,95924.50
2023-04-22T10:03:44.739Z,95922.75
2023-04-22T10:04:47.456Z,95931.78
2023-04-22T10:05:49.017Z,95929.41
2023-04-22T10:06:51.056Z,95924.88
2023-04-22T10:07:52.972Z,95924.09
2023-04-22T10:08:54.782Z,95921.72
2023-04-22T10:09:56.896Z,95928.50
2023-04-22T10:10:58.322Z,95920.94
2023-04-22T10:11:59.746Z,95934.09
2023-04-22T10:13:02.282Z,95921.78
2023-04-22T10:14:04.362Z,95932.00
2023-04-22T10:15:07.497Z,95928.38
2023-04-22T10:16:09.101Z,95926.16
2023-04-22T10:17:13.339Z,95910.97
2023-04-22T10:18:18.741Z,95912.78
2023-04-22T10:19:22.518Z,95927.34
2023-04-22T10:20:25.878Z,95939.22
2023-04-22T10:21:30.107Z,95923.31
2023-04-22T10:22:33.901Z,95923.75
2023-04-22T10:23:35.283Z,95922.09
2023-04-22T10:24:39.727Z,95917.47
2023-04-22T10:25:41.978Z,95916.25
2023-04-22T10:26:56.925Z,95921.56
2023-04-22T10:28:04.887Z,95921.78
2023-04-22T10:29:16.594Z,95921.25
2023-04-22T10:30:28.551Z,95913.59
2023-04-22T10:31:30.894Z,95915.06
2023-04-22T10:32:33.224Z,95926.16
2023-04-22T10:33:39.487Z,95916.53
2023-04-22T10:34:41.260Z,95921.31
2023-04-22T10:36:14.693Z,95918.91
2023-04-22T10:37:21.874Z,95912.34
2023-04-22T10:38:23.905Z,95920.94
2023-04-22T10:39:27.097Z,95911.53
2023-04-22T10:40:28.895Z,95916.38
2023-04-22T10:41:33.698Z,95911.03
2023-04-22T10:42:35.686Z,95907.94
2023-04-22T10:43:53.966Z,95911.13
2023-04-22T10:45:02.056Z,95913.88
2023-04-22T10:46:04.913Z,95909.00
2023-04-22T10:47:09.921Z,95920.31
2023-04-22T10:48:13.338Z,95909.69
2023-04-22T10:49:21.387Z,95913.69
2023-04-22T10:50:27.049Z,95905.09
2023-04-22T10:51:50.926Z,95898.28
2023-04-22T10:52:57.640Z,95910.59
2023-04-22T10:54:02.391Z,95910.75
2023-04-22T10:55:05.355Z,95918.06
2023-04-22T10:56:18.858Z,95898.94
2023-04-22T10:57:24.981Z,95918.38
2023-04-22T10:58:26.876Z,95916.03
2023-04-22T10:59:29.023Z,95911.63
2023-04-22T11:00:52.291Z,95903.47
2023-04-22T11:02:01.088Z,95895.75
2023-04-22T11:03:05.780Z,95910.81
2023-04-22T11:04:23.914Z,95901.56
2023-04-22T11:05:27.790Z,95909.31
2023-04-22T11:06:30.556Z,95903.41
2023-04-22T11:07:34.881Z,95904.50
2023-04-22T11:08:37.010Z,95909.88
2023-04-22T11:09:45.203Z,95906.75
2023-04-22T11:10:49.602Z,95904.78
2023-04-22T11:11:51.655Z,95899.09
2023-04-22T11:12:54.260Z,95914.28
2023-04-22T11:14:01.446Z,95905.44
2023-04-22T11:15:18.120Z,95912.97
2023-04-22T11:16:22.856Z,95909.38
2023-04-22T11:17:25.124Z,95904.34
2023-04-22T11:18:27.824Z,95911.03
2023-04-22T11:19:30.188Z,95907.19
2023-04-22T11:20:32.112Z,95912.00
2023-04-22T11:21:34.068Z,95910.94
2023-04-22T11:22:42.113Z,95911.50
2023-04-22T11:23:53.530Z,95907.38
2023-04-22T11:24:56.548Z,95906.44
2023-04-22T11:26:00.945Z,95908.00
2023-04-22T11:27:02.960Z,95901.00
2023-04-22T11:28:05.482Z,95903.78
2023-04-22T11:29:08.778Z,95906.59
2023-04-22T11:30:20.661Z,95912.00
2023-04-22T11:31:22.763Z,95890.03
2023-04-22T11:32:24.673Z,95901.31
2023-04-22T11:33:26.678Z,95900.19
2023-04-22T11:34:29.903Z,95902.34
2023-04-22T11:35:34.428Z,95906.09
2023-04-22T11:36:36.428Z,95915.53
2023-04-22T11:37:43.456Z,95899.03
2023-04-22T11:38:58.146Z,95906.72
2023-04-22T11:40:21.404Z,95891.03
2023-04-22T11:41:23.990Z,95905.34
2023-04-22T11:42:25.924Z,95896.28
2023-04-22T11:43:27.974Z,95891.56
2023-04-22T11:44:29.781Z,95898.63
2023-04-22T11:45:36.355Z,95896.69
2023-04-22T11:46:41.252Z,95896.78
2023-04-22T11:47:46.280Z,95895.44
2023-04-22T11:48:48.232Z,95896.66
2023-04-22T11:49:58.053Z,95896.16
2023-04-22T11:51:12.946Z,95902.47
2023-04-22T11:52:14.741Z,95895.16
2023-04-22T11:53:19.873Z,95892.97
2023-04-22T11:54:38.607Z,95895.44
2023-04-22T11:55:41.420Z,95899.66
2023-04-22T11:56:43.298Z,95902.09
2023-04-22T11:57:46.334Z,95900.59
2023-04-22T11:58:48.256Z,95903.66
2023-04-22T11:59:59.668Z,95902.44
2023-04-22T12:01:01.773Z,95906.84
2023-04-22T12:02:07.127Z,95909.44
2023-04-22T12:03:19.384Z,95908.13
2023-04-22T12:04:23.079Z,95913.19
2023-04-22T12:05:37.281Z,95901.69
2023-04-22T12:06:41.312Z,95915.16
2023-04-22T12:07:43.620Z,95914.56
2023-04-22T12:08:48.066Z,95910.56
2023-04-22T12:09:54.466Z,95911.66
2023-04-22T12:10:59.980Z,95916.47
2023-04-22T12:12:04.499Z,95914.38
2023-04-22T12:13:06.884Z,95911.50
2023-04-22T12:14:09.166Z,95925.53
2023-04-22T12:15:13.761Z,95912.78
2023-04-22T12:16:19.511Z,95909.31
2023-04-22T12:17:25.433Z,95906.66
2023-04-22T12:18:37.249Z,95916.03
2023-04-22T12:19:39.404Z,95908.16
2023-04-22T12:20:42.321Z,95903.63
2023-04-22T12:21:44.173Z,95923.38
2023-04-22T12:22:46.018Z,95907.88
2023-04-22T12:23:56.112Z,95912.16
2023-04-22T12:25:01.821Z,95913.63
2023-04-22T12:26:03.607Z,95900.66
2023-04-22T12:27:05.518Z,95905.34
2023-04-22T12:28:07.497Z,95907.31
2023-04-22T12:29:09.356Z,95909.91
2023-04-22T12:30:11.640Z,95902.03
2023-04-22T12:31:15.152Z,95907.44
2023-04-22T12:32:17.041Z,95915.34
2023-04-22T12:33:19.061Z,95906.72
2023-04-22T12:34:21.160Z,95906.16
2023-04-22T12:35:23.014Z,95913.13
2023-04-22T12:36:25.769Z,95914.50
2023-04-22T12:37:28.124Z,95917.50
2023-04-22T12:38:29.996Z,95921.56
2023-04-22T12:39:32.409Z,95913.16
2023-04-22T12:40:33.837Z,95919.75
2023-04-22T12:41:35.185Z,95917.16
2023-04-22T12:42:36.647Z,95918.78
2023-04-22T12:43:39.552Z,95915.22
2023-04-22T12:44:41.394Z,95914.19
2023-04-22T12:45:42.898Z,95918.16
2023-04-22T12:46:44.486Z,95914.06
2023-04-22T12:47:46.994Z,95920.22
2023-04-22T12:48:48.375Z,95921.38
2023-04-22T12:49:50.276Z,95926.56
2023-04-22T12:50:51.844Z,95918.63
2023-04-22T12:51:53.476Z,95922.66
2023-04-22T12:52:55.102Z,95925.44
2023-04-22T12:53:56.609Z,95923.91
2023-04-22T12:54:58.017Z,95931.88
2023-04-22T12:55:59.659Z,95924.91
2023-04-22T12:57:02.257Z,95916.50
2023-04-22T12:58:04.178Z,95922.25
2023-04-22T12:59:05.591Z,95929.63
2023-04-22T13:00:14.121Z,95932.22
2023-04-22T13:01:15.602Z,95936.44
2023-04-22T13:02:17.134Z,95931.44
2023-04-22T13:03:18.800Z,95934.91
2023-04-22T13:04:20.768Z,95932.41
2023-04-22T13:05:22.395Z,95930.00
2023-04-22T13:06:23.842Z,95936.44
2023-04-22T13:07:25.201Z,95941.28
2023-04-22T13:08:27.708Z,95932.81
2023-04-22T13:09:29.081Z,95923.44
2023-04-22T13:10:30.653Z,95934.91
2023-04-22T13:11:32.139Z,95933.56
2023-04-22T13:12:33.748Z,95930.66
2023-04-22T13:13:35.802Z,95919.03
2023-04-22T13:14:37.277Z,95919.66
2023-04-22T13:15:38.887Z,95921.19
2023-04-22T13:16:40.782Z,95922.41
2023-04-22T13:17:42.719Z,95933.72
2023-04-22T13:18:45.197Z,95924.88
2023-04-22T13:19:48.163Z,95921.41
2023-04-22T13:20:49.597Z,95920.28
2023-04-22T13:21:51.121Z,95924.16
2023-04-22T13:22:53.694Z,95906.19
2023-04-22T13:23:55.170Z,95920.91
2023-04-22T13:24:56.672Z,95916.47
2023-04-22T13:25:58.115Z,95924.28
2023-04-22T13:26:59.700Z,95914.53
2023-04-22T13:28:01.260Z,95919.97
2023-04-22T13:29:02.964Z,95907.59
2023-04-22T13:30:07.332Z,95920.38
2023-04-22T13:31:08.804Z,95920.94
2023-04-22T13:32:10.622Z,95912.75
2023-04-22T13:33:12.032Z,95913.72
2023-04-22T13:34:14.263Z,95909.69
2023-04-22T13:35:17.992Z,95911.63
2023-04-22T13:36:19.392Z,95915.78
2023-04-22T13:37:21.475Z,95914.78
2023-04-22T13:38:22.851Z,95913.81
2023-04-22T13:39:24.985Z,95909.56
2023-04-22T13:40:27.322Z,95907.09
2023-04-22T13:41:28.743Z,95905.44
2023-04-22T13:42:30.445Z,95910.44
2023-04-22T13:43:32.530Z,95906.97
2023-04-22T13:44:33.949Z,95908.22
2023-04-22T13:45:35.863Z,95902.09
2023-04-22T13:46:37.289Z,95910.34
2023-04-22T13:47:39.252Z,95907.44
2023-04-22T13:48:40.826Z,95897.53
2023-04-22T13:49:42.315Z,95901.91
2023-04-22T13:50:43.878Z,95905.66
2023-04-22T13:51:45.447Z,95885.19
2023-04-22T13:52:47.950Z,95892.03
2023-04-22T13:53:49.368Z,95893.00
2023-04-22T13:54:50.925Z,95888.56
2023-04-22T13:55:52.379Z,95896.75
2023-04-22T13:56:54.281Z,95895.09
2023-04-22T13:57:55.710Z,95901.09
2023-04-22T13:58:58.278Z,95894.28
2023-04-22T13:59:59.971Z,95894.28
2023-04-22T14:01:01.474Z,95893.56
2023-04-22T14:02:03.114Z,95887.41
2023-04-22T14:03:05.241Z,95888.94
2023-04-22T14:04:06.937Z,95886.44
2023-04-22T14:05:09.859Z,95886.84
2023-04-22T14:06:11.305Z,95896.47
2023-04-22T14:07:12.811Z,95892.97
2023-04-22T14:08:14.208Z,95883.06
2023-04-22T14:09:15.531Z,95892.97
2023-04-22T14:10:20.298Z,95886.03
2023-04-22T14:11:21.821Z,95891.47
2023-04-22T14:12:23.314Z,95891.88
2023-04-22T14:13:28.237Z,95900.94
2023-04-22T14:14:29.744Z,95896.34
2023-04-22T14:15:31.154Z,95899.13
2023-04-22T14:16:32.543Z,95892.44
2023-04-22T14:17:34.132Z,95892.31
2023-04-22T14:18:36.935Z,95896.47
2023-04-22T14:19:39.960Z,95907.91
2023-04-22T14:20:43.081Z,95892.31
2023-04-22T14:21:44.461Z,95893.44
2023-04-22T14:22:46.391Z,95895.22
2023-04-22T14:23:47.850Z,95895.91
2023-04-22T14:24:49.276Z,95898.44
2023-04-22T14:25:50.781Z,95893.28
2023-04-22T14:26:52.730Z,95886.59
2023-04-22T14:27:54.255Z,95889.19
2023-04-22T14:28:55.605Z,95887.00
2023-04-22T14:29:57.032Z,95888.09
2023-04-22T14:30:59.034Z,95875.25
2023-04-22T14:32:00.954Z,95888.09
2023-04-22T14:33:06.970Z,95879.88
2023-04-22T14:34:08.515Z,95887.09
2023-04-22T14:35:10.130Z,95890.56
2023-04-22T14:36:11.489Z,95882.09
2023-04-22T14:37:12.911Z,95888.91
2023-04-22T14:38:14.573Z,95891.81
2023-04-22T14:39:16.335Z,95883.19
2023-04-22T14:40:18.904Z,95879.97
2023-04-22T14:41:21.333Z,95886.63
2023-04-22T14:42:25.425Z,95888.81
2023-04-22T14:43:26.955Z,95870.59
2023-04-22T14:44:28.662Z,95885.63
2023-04-22T14:48:44.743Z,95879.16
2023-04-22T14:53:21.736Z,95874.19
2023-04-22T14:57:58.446Z,95885.28
2023-04-22T16:02:38.606Z,95880.47
2023-04-22T16:05:47.279Z,95881.06
2023-04-22T16:09:07.783Z,95885.34
